Time;durP1;ratioP1;P1;durP2;ratioP2;P2;SDS_P1;SDS_P2;PMS_P1;PMS_P2;Temp;Humidity;BMP_temperature;BMP_pressure;BME280_temperature;BME280_humidity;BME280_pressure;Samples;Min_cycle;Max_cycle;Signal;HPM_P1;HPM_P2
2023/04/14 00:02:38;;;;;;;;;;;;;;;;;;5091858;28;19935;-72
2023/04/14 00:05:41;;;;;;;;;;;;;;;;;;5095840;28;19962;-73
2023/04/14 00:08:44;;;;;;;;;;;;;;;;;;5095845;28;20272;-73
2023/04/14 00:11:49;;;;;;;;;;;;;;;;;;5095728;28;19965;-73
2023/04/14 00:14:52;;;;;;;;;;;;;;;;;;5095583;28;20318;-73
2023/04/14 00:17:55;;;;;;;;;;;;;;;;;;5095391;28;19920;-73
2023/04/14 00:20:58;;;;;;;;;;;;;;;;;;5094965;28;19919;-73
2023/04/14 00:24:01;;;;;;;;;;;;;;;;;;5094924;28;20332;-73
2023/04/14 00:27:04;;;;;;;;;;;;;;;;;;5094435;28;20007;-73
2023/04/14 00:30:07;;;;;;;;;;;;;;;;;;5095465;28;19965;-73
2023/04/14 00:33:10;;;;;;;;;;;;;;;;;;5094730;28;19938;-73
2023/04/14 00:36:13;;;;;;;;;;;;;;;;;;5094997;28;19964;-73
2023/04/14 00:39:17;;;;;;;;;;;;;;;;;;5093870;28;19969;-73
2023/04/14 00:42:19;;;;;;;;;;;;;;;;;;5092885;28;19970;-73
2023/04/14 00:45:24;;;;;;;;;;;;;;;;;;5094280;28;19958;-73
2023/04/14 00:48:27;;;;;;;;;;;;;;;;;;5081918;28;20375;-73
2023/04/14 00:51:31;;;;;;;;;;;;;;;;;;5081952;28;19920;-73
2023/04/14 00:54:34;;;;;;;;;;;;;;;;;;5094558;28;19958;-72
2023/04/14 00:57:37;;;;;;;;;;;;;;;;;;5081588;28;19965;-73
2023/04/14 01:00:40;;;;;;;;;;;;;;;;;;5082362;28;19927;-73
2023/04/14 01:03:45;;;;;;;;;;;;;;;;;;5094646;28;19954;-74
2023/04/14 01:06:48;;;;;;;;;;;;;;;;;;5094478;28;20386;-74
2023/04/14 01:17:23;;;;;;;;;;;;;;;;;;5094129;28;19935;-74
2023/04/14 01:20:29;;;;;;;;;;;;;;;;;;5094355;28;19924;-73
2023/04/14 01:23:41;;;;;;;;;;;;;;;;;;5081436;28;19923;-74
2023/04/14 01:26:44;;;;;;;;;;;;;;;;;;5092234;28;19934;-74
2023/04/14 01:29:47;;;;;;;;;;;;;;;;;;5079944;28;20461;-71
2023/04/14 01:32:50;;;;;;;;;;;;;;;;;;5093292;28;19918;-72
2023/04/14 01:35:53;;;;;;;;;;;;;;;;;;5094095;28;20015;-73
2023/04/14 01:38:56;;;;;;;;;;;;;;;;;;5081317;28;19923;-73
2023/04/14 01:42:00;;;;;;;;;;;;;;;;;;5081351;28;20329;-73
2023/04/14 01:45:04;;;;;;;;;;;;;;;;;;5081470;28;19923;-73
2023/04/14 01:48:07;;;;;;;;;;;;;;;;;;5079902;28;19965;-73
2023/04/14 01:51:11;;;;;;;;;;;;;;;;;;5080162;28;19966;-73
2023/04/14 01:54:13;;;;;;;;;;;;;;;;;;5080478;28;19981;-74
2023/04/14 01:57:19;;;;;;;;;;;;;;;;;;5080493;28;19919;-74
2023/04/14 02:00:41;;;;;;;;;;;;;;;;;;5075123;28;19977;-74
2023/04/14 02:03:44;;;;;;;;;;;;;;;;;;5093324;28;20398;-74
2023/04/14 02:06:49;;;;;;;;;;;;;;;;;;5093425;28;19939;-74
2023/04/14 02:09:54;;;;;;;;;;;;;;;;;;5093644;28;19997;-74
2023/04/14 02:12:56;;;;;;;;;;;;;;;;;;5093186;28;19965;-74
2023/04/14 02:15:59;;;;;;;;;;;;;;;;;;5080570;28;19919;-74
2023/04/14 02:19:02;;;;;;;;;;;;;;;;;;5080654;28;20398;-74
2023/04/14 02:22:05;;;;;;;;;;;;;;;;;;5093447;28;20449;-74
2023/04/14 02:25:08;;;;;;;;;;;;;;;;;;5093613;28;19919;-74
2023/04/14 02:28:10;;;;;;;;;;;;;;;;;;5092917;28;19970;-74
2023/04/14 02:31:15;;;;;;;;;;;;;;;;;;5092997;28;19958;-74
2023/04/14 02:34:19;;;;;;;;;;;;;;;;;;5080764;28;19919;-72
2023/04/14 02:37:22;;;;;;;;;;;;;;;;;;5080757;28;19966;-72
2023/04/14 02:40:25;;;;;;;;;;;;;;;;;;5080659;28;19986;-72
2023/04/14 02:43:29;;;;;;;;;;;;;;;;;;5091040;28;20458;-71
2023/04/14 02:46:31;;;;;;;;;;;;;;;;;;5079430;28;20007;-71
2023/04/14 02:49:34;;;;;;;;;;;;;;;;;;5093108;28;20467;-71
2023/04/14 02:52:37;;;;;;;;;;;;;;;;;;5080577;28;20383;-71
2023/04/14 02:55:40;;;;;;;;;;;;;;;;;;5080618;28;19973;-71
2023/04/14 02:58:43;;;;;;;;;;;;;;;;;;5080050;28;19938;-72
2023/04/14 03:01:46;;;;;;;;;;;;;;;;;;5092876;28;20387;-71
2023/04/14 03:04:48;;;;;;;;;;;;;;;;;;5080474;28;19919;-71
2023/04/14 03:08:09;;;;;;;;;;;;;;;;;;5084388;28;19969;-71
2023/04/14 03:11:14;;;;;;;;;;;;;;;;;;5083611;28;19919;-71
2023/04/14 03:14:17;;;;;;;;;;;;;;;;;;5082679;28;19986;-72
2023/04/14 03:17:20;;;;;;;;;;;;;;;;;;5093906;28;19965;-73
2023/04/14 03:20:24;;;;;;;;;;;;;;;;;;5081899;28;20000;-73
2023/04/14 03:23:29;;;;;;;;;;;;;;;;;;5079227;28;20334;-73
2023/04/14 03:26:36;;;;;;;;;;;;;;;;;;5082466;28;20291;-74
2023/04/14 03:29:39;;;;;;;;;;;;;;;;;;5081695;28;19965;-73
2023/04/14 03:32:43;;;;;;;;;;;;;;;;;;5082294;28;20006;-74
2023/04/14 03:35:49;;;;;;;;;;;;;;;;;;5080331;28;19962;-73
2023/04/14 03:38:54;;;;;;;;;;;;;;;;;;5080674;28;20280;-73
2023/04/14 03:41:57;;;;;;;;;;;;;;;;;;5081341;28;19918;-73
2023/04/14 03:45:01;;;;;;;;;;;;;;;;;;5081844;28;20448;-73
2023/04/14 03:48:05;;;;;;;;;;;;;;;;;;5079913;28;20049;-73
2023/04/14 03:51:14;;;;;;;;;;;;;;;;;;5080768;28;19965;-73
2023/04/14 03:54:16;;;;;;;;;;;;;;;;;;5093673;28;20010;-73
2023/04/14 03:57:19;;;;;;;;;;;;;;;;;;5081180;28;19927;-72
2023/04/14 04:00:23;;;;;;;;;;;;;;;;;;5081795;28;19927;-71
2023/04/14 04:03:26;;;;;;;;;;;;;;;;;;5091440;28;19922;-71
2023/04/14 04:06:28;;;;;;;;;;;;;;;;;;5079159;28;19965;-72
2023/04/14 04:09:33;;;;;;;;;;;;;;;;;;5091293;28;19923;-73
2023/04/14 04:12:43;;;;;;;;;;;;;;;;;;5081741;28;20074;-73
2023/04/14 04:15:47;;;;;;;;;;;;;;;;;;5082383;28;19977;-73
2023/04/14 04:18:50;;;;;;;;;;;;;;;;;;5094953;28;19923;-72
2023/04/14 04:21:58;;;;;;;;;;;;;;;;;;5082842;28;19919;-72
2023/04/14 04:25:01;;;;;;;;;;;;;;;;;;5082600;28;19985;-73
2023/04/14 04:28:08;;;;;;;;;;;;;;;;;;5080045;28;19919;-72
2023/04/14 04:31:11;;;;;;;;;;;;;;;;;;5081011;28;19990;-71
2023/04/14 04:34:14;;;;;;;;;;;;;;;;;;5082645;28;19919;-72
2023/04/14 04:37:17;;;;;;;;;;;;;;;;;;5082718;28;20288;-71
2023/04/14 04:40:19;;;;;;;;;;;;;;;;;;5082826;28;19968;-71
2023/04/14 04:43:24;;;;;;;;;;;;;;;;;;5081778;28;19919;-71
2023/04/14 04:46:27;;;;;;;;;;;;;;;;;;5094617;28;19920;-71
2023/04/14 04:49:30;;;;;;;;;;;;;;;;;;5082139;28;19920;-71
2023/04/14 04:52:38;;;;;;;;;;;;;;;;;;5082019;28;19965;-70
2023/04/14 04:55:41;;;;;;;;;;;;;;;;;;5094466;28;19958;-70
2023/04/14 04:58:44;;;;;;;;;;;;;;;;;;5093524;28;19950;-70
2023/04/14 05:01:47;;;;;;;;;;;;;;;;;;5093534;28;19977;-70
2023/04/14 05:04:50;;;;;;;;;;;;;;;;;;5094028;28;19919;-70
2023/04/14 05:07:53;;;;;;;;;;;;;;;;;;5093982;28;19918;-70
2023/04/14 05:10:56;;;;;;;;;;;;;;;;;;5093904;28;19982;-70
2023/04/14 05:13:59;;;;;;;;;;;;;;;;;;5094207;28;19981;-70
2023/04/14 05:17:02;;;;;;;;;;;;;;;;;;5094314;28;20017;-70
2023/04/14 05:20:05;;;;;;;;;;;;;;;;;;5094306;28;19938;-70
2023/04/14 05:23:08;;;;;;;;;;;;;;;;;;5094306;28;19947;-70
2023/04/14 05:26:11;;;;;;;;;;;;;;;;;;5094281;28;20474;-70
2023/04/14 05:29:14;;;;;;;;;;;;;;;;;;5093970;28;20048;-73
2023/04/14 05:32:17;;;;;;;;;;;;;;;;;;5094161;28;19919;-71
2023/04/14 05:35:20;;;;;;;;;;;;;;;;;;5094427;28;19934;-71
2023/04/14 05:38:23;;;;;;;;;;;;;;;;;;5094297;28;20289;-71
2023/04/14 05:41:26;;;;;;;;;;;;;;;;;;5094015;28;19919;-71
2023/04/14 05:44:29;;;;;;;;;;;;;;;;;;5093997;28;19981;-70
2023/04/14 05:47:32;;;;;;;;;;;;;;;;;;5094099;28;19919;-70
2023/04/14 05:50:36;;;;;;;;;;;;;;;;;;5093891;28;19919;-70
2023/04/14 05:53:39;;;;;;;;;;;;;;;;;;5094161;28;19926;-70
2023/04/14 05:56:42;;;;;;;;;;;;;;;;;;5093806;28;19919;-71
2023/04/14 05:59:45;;;;;;;;;;;;;;;;;;5093526;28;19973;-72
2023/04/14 06:02:47;;;;;;;;;;;;;;;;;;5093730;28;20316;-71
2023/04/14 06:05:51;;;;;;;;;;;;;;;;;;5093667;28;20127;-72
2023/04/14 06:08:54;;;;;;;;;;;;;;;;;;5093912;28;19918;-71
2023/04/14 06:11:57;;;;;;;;;;;;;;;;;;5093611;28;20351;-71
2023/04/14 06:15:00;;;;;;;;;;;;;;;;;;5093553;28;19965;-71
2023/04/14 06:18:03;;;;;;;;;;;;;;;;;;5093688;28;20378;-71
2023/04/14 06:21:06;;;;;;;;;;;;;;;;;;5093449;28;19923;-73
2023/04/14 06:24:09;;;;;;;;;;;;;;;;;;5093687;28;19939;-71
2023/04/14 06:27:12;;;;;;;;;;;;;;;;;;5093290;28;19918;-73
2023/04/14 06:30:15;;;;;;;;;;;;;;;;;;5093367;28;19950;-71
2023/04/14 06:33:18;;;;;;;;;;;;;;;;;;5093327;28;19918;-71
2023/04/14 06:36:21;;;;;;;;;;;;;;;;;;5093302;28;19966;-70
2023/04/14 06:39:24;;;;;;;;;;;;;;;;;;5080660;28;19968;-71
2023/04/14 06:42:26;;;;;;;;;;;;;;;;;;5097384;28;20386;-70
2023/04/14 06:45:29;;;;;;;;;;;;;;;;;;5097384;28;20008;-71
2023/04/14 06:48:32;;;;;;;;;;;;;;;;;;5097280;28;19919;-71
2023/04/14 06:51:35;;;;;;;;;;;;;;;;;;5095122;28;19919;-72
2023/04/14 06:54:37;;;;;;;;;;;;;;;;;;5095249;28;20383;-71
2023/04/14 06:57:40;;;;;;;;;;;;;;;;;;5096413;28;20297;-71
2023/04/14 07:00:43;;;;;;;;;;;;;;;;;;5095538;28;19972;-71
2023/04/14 07:04:05;;;;;;;;;;;;;;;;;;5095857;28;19919;-71
2023/04/14 07:07:07;;;;;;;;;;;;;;;;;;5096216;28;19920;-71
2023/04/14 07:10:11;;;;;;;;;;;;;;;;;;5096428;28;19962;-71
2023/04/14 07:13:14;;;;;;;;;;;;;;;;;;5096990;28;19919;-71
2023/04/14 07:16:17;;;;;;;;;;;;;;;;;;5096816;28;19966;-71
2023/04/14 07:19:20;;;;;;;;;;;;;;;;;;5096734;28;19931;-71
2023/04/14 07:22:22;;;;;;;;;;;;;;;;;;5096718;28;19920;-71
2023/04/14 07:25:26;;;;;;;;;;;;;;;;;;5096827;28;19975;-71
2023/04/14 07:28:28;;;;;;;;;;;;;;;;;;5096622;28;19935;-71
2023/04/14 07:31:33;;;;;;;;;;;;;;;;;;5096516;28;19923;-71
2023/04/14 07:34:36;;;;;;;;;;;;;;;;;;5096514;28;19966;-71
2023/04/14 07:37:39;;;;;;;;;;;;;;;;;;5096467;28;19919;-71
2023/04/14 07:40:41;;;;;;;;;;;;;;;;;;5096341;28;19922;-71
2023/04/14 07:43:45;;;;;;;;;;;;;;;;;;5096256;28;19955;-71
2023/04/14 07:46:48;;;;;;;;;;;;;;;;;;5096228;28;19918;-71
2023/04/14 07:49:52;;;;;;;;;;;;;;;;;;5096243;28;20407;-71
2023/04/14 07:52:55;;;;;;;;;;;;;;;;;;5095985;28;20433;-71
2023/04/14 07:55:57;;;;;;;;;;;;;;;;;;5096041;28;19919;-71
2023/04/14 07:59:00;;;;;;;;;;;;;;;;;;5095824;28;19927;-71
2023/04/14 08:02:03;;;;;;;;;;;;;;;;;;5096007;28;19957;-71
2023/04/14 08:05:06;;;;;;;;;;;;;;;;;;5095892;28;19935;-71
2023/04/14 08:08:09;;;;;;;;;;;;;;;;;;5083132;28;20011;-71
2023/04/14 08:11:12;;;;;;;;;;;;;;;;;;5095685;28;19958;-71
2023/04/14 08:14:15;;;;;;;;;;;;;;;;;;5095708;28;20007;-71
2023/04/14 08:17:17;;;;;;;;;;;;;;;;;;5095654;28;19919;-71
2023/04/14 08:20:21;;;;;;;;;;;;;;;;;;5095507;28;19977;-71
2023/04/14 08:23:24;;;;;;;;;;;;;;;;;;5095515;28;19935;-72
2023/04/14 08:26:27;;;;;;;;;;;;;;;;;;5095706;28;20024;-71
2023/04/14 08:29:30;;;;;;;;;;;;;;;;;;5094806;28;19973;-71
2023/04/14 08:32:33;;;;;;;;;;;;;;;;;;5095037;28;19918;-71
2023/04/14 08:35:36;;;;;;;;;;;;;;;;;;5095301;28;19923;-71
2023/04/14 08:38:38;;;;;;;;;;;;;;;;;;5095329;28;19939;-71
2023/04/14 08:41:41;;;;;;;;;;;;;;;;;;5094838;28;19923;-71
2023/04/14 08:44:45;;;;;;;;;;;;;;;;;;5094951;28;19965;-71
2023/04/14 08:47:48;;;;;;;;;;;;;;;;;;5095098;28;19920;-71
2023/04/14 08:50:51;;;;;;;;;;;;;;;;;;5094965;28;19934;-72
2023/04/14 08:53:54;;;;;;;;;;;;;;;;;;5094941;28;19919;-72
2023/04/14 08:56:58;;;;;;;;;;;;;;;;;;5093409;28;19919;-72
2023/04/14 09:00:03;;;;;;;;;;;;;;;;;;5092295;28;20028;-72
2023/04/14 09:03:07;;;;;;;;;;;;;;;;;;5093601;28;20050;-72
2023/04/14 09:06:10;;;;;;;;;;;;;;;;;;5094304;28;19974;-71
2023/04/14 09:09:13;;;;;;;;;;;;;;;;;;5094147;28;20319;-72
2023/04/14 09:12:19;;;;;;;;;;;;;;;;;;5094189;28;19919;-72
2023/04/14 09:15:23;;;;;;;;;;;;;;;;;;5095019;28;19919;-73
2023/04/14 09:18:26;;;;;;;;;;;;;;;;;;5094817;28;19923;-73
2023/04/14 09:21:29;;;;;;;;;;;;;;;;;;5093843;28;19965;-73
2023/04/14 09:24:33;;;;;;;;;;;;;;;;;;5094240;28;19919;-73
2023/04/14 09:27:36;;;;;;;;;;;;;;;;;;5094276;28;19919;-73
2023/04/14 09:30:38;;;;;;;;;;;;;;;;;;5094234;28;20437;-73
2023/04/14 09:33:41;;;;;;;;;;;;;;;;;;5094103;28;19923;-73
2023/04/14 09:36:44;;;;;;;;;;;;;;;;;;5094277;28;19981;-73
2023/04/14 09:39:50;;;;;;;;;;;;;;;;;;5094066;28;19980;-73
2023/04/14 09:42:53;;;;;;;;;;;;;;;;;;5094298;28;20276;-73
2023/04/14 09:45:56;;;;;;;;;;;;;;;;;;5093982;28;19919;-73
2023/04/14 09:48:59;;;;;;;;;;;;;;;;;;5093898;28;19995;-73
2023/04/14 09:52:02;;;;;;;;;;;;;;;;;;5093865;28;19919;-73
2023/04/14 09:55:06;;;;;;;;;;;;;;;;;;5093801;28;20382;-73
2023/04/14 09:58:09;;;;;;;;;;;;;;;;;;5093517;28;20391;-73
2023/04/14 10:01:12;;;;;;;;;;;;;;;;;;5093691;28;20383;-73
2023/04/14 10:04:15;;;;;;;;;;;;;;;;;;5093714;28;19919;-73
2023/04/14 10:07:18;;;;;;;;;;;;;;;;;;5093696;28;19982;-74
2023/04/14 10:10:21;;;;;;;;;;;;;;;;;;5093536;28;20003;-78
2023/04/14 10:13:24;;;;;;;;;;;;;;;;;;5093538;28;19919;-77
2023/04/14 10:16:26;;;;;;;;;;;;;;;;;;5093051;28;19983;-77
2023/04/14 10:19:29;;;;;;;;;;;;;;;;;;5093571;28;20041;-76
2023/04/14 10:22:32;;;;;;;;;;;;;;;;;;5092389;28;19966;-76
2023/04/14 10:25:35;;;;;;;;;;;;;;;;;;5091662;28;19935;-75
2023/04/14 10:28:39;;;;;;;;;;;;;;;;;;5091524;28;20054;-75
2023/04/14 10:31:43;;;;;;;;;;;;;;;;;;5092448;28;19935;-76
2023/04/14 10:34:46;;;;;;;;;;;;;;;;;;5092854;28;19919;-76
2023/04/14 10:37:49;;;;;;;;;;;;;;;;;;5093069;28;19919;-77
2023/04/14 10:40:52;;;;;;;;;;;;;;;;;;5080976;28;20348;-74
2023/04/14 10:43:55;;;;;;;;;;;;;;;;;;5093226;28;20016;-76
2023/04/14 10:46:59;;;;;;;;;;;;;;;;;;5093225;28;19919;-75
2023/04/14 10:50:03;;;;;;;;;;;;;;;;;;5093214;28;20386;-75
2023/04/14 10:53:08;;;;;;;;;;;;;;;;;;5093203;28;19919;-75
2023/04/14 10:56:10;;;;;;;;;;;;;;;;;;5093042;28;19923;-75
2023/04/14 10:59:16;;;;;;;;;;;;;;;;;;5092983;28;19974;-75
2023/04/14 11:02:19;;;;;;;;;;;;;;;;;;5093381;28;19935;-76
2023/04/14 11:05:23;;;;;;;;;;;;;;;;;;5093123;28;19919;-75
2023/04/14 11:08:26;;;;;;;;;;;;;;;;;;5093182;28;19920;-77
2023/04/14 11:11:29;;;;;;;;;;;;;;;;;;5093003;28;20390;-74
2023/04/14 11:14:32;;;;;;;;;;;;;;;;;;5093015;28;20498;-75
2023/04/14 11:17:35;;;;;;;;;;;;;;;;;;5092971;28;19935;-75
2023/04/14 11:20:38;;;;;;;;;;;;;;;;;;5092733;28;19977;-73
2023/04/14 11:23:41;;;;;;;;;;;;;;;;;;5093116;28;20364;-74
2023/04/14 11:26:44;;;;;;;;;;;;;;;;;;5094526;28;20334;-74
2023/04/14 11:29:47;;;;;;;;;;;;;;;;;;5096895;28;19919;-74
2023/04/14 11:32:50;;;;;;;;;;;;;;;;;;5096896;28;19919;-75
2023/04/14 11:35:53;;;;;;;;;;;;;;;;;;5096493;28;19919;-74
2023/04/14 11:38:56;;;;;;;;;;;;;;;;;;5096348;28;20386;-74
2023/04/14 11:41:59;;;;;;;;;;;;;;;;;;5096633;28;20292;-75
2023/04/14 11:45:03;;;;;;;;;;;;;;;;;;5096371;28;20386;-74
2023/04/14 11:48:07;;;;;;;;;;;;;;;;;;5096240;28;20006;-73
2023/04/14 11:51:11;;;;;;;;;;;;;;;;;;5096187;28;19923;-74
2023/04/14 11:54:13;;;;;;;;;;;;;;;;;;5096099;28;19965;-74
2023/04/14 11:57:16;;;;;;;;;;;;;;;;;;5096052;28;19934;-73
2023/04/14 12:00:19;;;;;;;;;;;;;;;;;;5095959;28;19943;-77
2023/04/14 12:03:22;;;;;;;;;;;;;;;;;;5096296;28;19986;-77
2023/04/14 12:06:28;;;;;;;;;;;;;;;;;;5095449;28;20060;-75
2023/04/14 12:09:31;;;;;;;;;;;;;;;;;;5095851;28;19919;-74
2023/04/14 12:12:34;;;;;;;;;;;;;;;;;;5095818;28;20426;-74
2023/04/14 12:15:37;;;;;;;;;;;;;;;;;;5095624;28;19918;-77
2023/04/14 12:18:40;;;;;;;;;;;;;;;;;;5096473;28;19968;-73
2023/04/14 12:21:43;;;;;;;;;;;;;;;;;;5095622;28;20007;-74
2023/04/14 12:24:46;;;;;;;;;;;;;;;;;;5095445;28;19919;-75
2023/04/14 12:27:49;;;;;;;;;;;;;;;;;;5095868;28;20288;-74
2023/04/14 12:30:53;;;;;;;;;;;;;;;;;;5095381;28;20010;-74
2023/04/14 12:33:57;;;;;;;;;;;;;;;;;;5095079;28;19966;-75
2023/04/14 12:37:00;;;;;;;;;;;;;;;;;;5095297;28;20050;-76
2023/04/14 12:40:05;;;;;;;;;;;;;;;;;;5094943;28;19969;-75
2023/04/14 12:43:08;;;;;;;;;;;;;;;;;;5095137;28;19935;-77
2023/04/14 12:46:12;;;;;;;;;;;;;;;;;;5095166;28;19935;-74
2023/04/14 12:49:15;;;;;;;;;;;;;;;;;;5095077;28;19957;-76
2023/04/14 12:52:18;;;;;;;;;;;;;;;;;;5094939;28;20011;-76
2023/04/14 12:55:21;;;;;;;;;;;;;;;;;;5082514;28;19923;-74
2023/04/14 12:58:24;;;;;;;;;;;;;;;;;;5094684;28;19923;-73
2023/04/14 13:01:28;;;;;;;;;;;;;;;;;;5093915;28;19920;-72
2023/04/14 13:04:31;;;;;;;;;;;;;;;;;;5094650;28;20397;-75
2023/04/14 13:07:34;;;;;;;;;;;;;;;;;;5095000;28;20379;-73
2023/04/14 13:10:37;;;;;;;;;;;;;;;;;;5094564;28;20003;-73
2023/04/14 13:13:40;;;;;;;;;;;;;;;;;;5094524;28;19988;-74
2023/04/14 13:16:43;;;;;;;;;;;;;;;;;;5092853;28;20295;-75
2023/04/14 13:19:46;;;;;;;;;;;;;;;;;;5079873;28;19961;-75
2023/04/14 13:22:49;;;;;;;;;;;;;;;;;;5093431;28;19964;-76
2023/04/14 13:25:53;;;;;;;;;;;;;;;;;;5093618;28;20054;-75
2023/04/14 13:28:56;;;;;;;;;;;;;;;;;;5093943;28;19919;-75
2023/04/14 13:31:59;;;;;;;;;;;;;;;;;;5094252;28;19919;-73
2023/04/14 13:35:02;;;;;;;;;;;;;;;;;;5094257;28;19918;-73
2023/04/14 13:38:06;;;;;;;;;;;;;;;;;;5094407;28;20272;-74
2023/04/14 13:41:09;;;;;;;;;;;;;;;;;;5094037;28;20321;-74
2023/04/14 13:44:12;;;;;;;;;;;;;;;;;;5094361;28;20420;-73
2023/04/14 13:47:17;;;;;;;;;;;;;;;;;;5094005;28;20279;-74
2023/04/14 13:50:21;;;;;;;;;;;;;;;;;;5094048;28;19973;-73
2023/04/14 13:53:24;;;;;;;;;;;;;;;;;;5088673;28;19973;-73
2023/04/14 13:56:27;;;;;;;;;;;;;;;;;;5093353;28;19923;-74
2023/04/14 13:59:30;;;;;;;;;;;;;;;;;;5093215;28;19927;-73
2023/04/14 14:02:33;;;;;;;;;;;;;;;;;;5093688;28;19920;-73
2023/04/14 14:05:36;;;;;;;;;;;;;;;;;;5093575;28;19935;-73
2023/04/14 14:08:41;;;;;;;;;;;;;;;;;;5104225;28;19989;-73
2023/04/14 14:11:45;;;;;;;;;;;;;;;;;;5093234;28;19965;-73
2023/04/14 14:14:47;;;;;;;;;;;;;;;;;;5093378;28;20338;-73
2023/04/14 14:17:51;;;;;;;;;;;;;;;;;;5092884;28;19919;-74
2023/04/14 14:20:55;;;;;;;;;;;;;;;;;;5091664;28;19923;-74
2023/04/14 14:23:58;;;;;;;;;;;;;;;;;;5092963;28;19919;-74
2023/04/14 14:27:02;;;;;;;;;;;;;;;;;;5092920;28;19923;-75
2023/04/14 14:30:05;;;;;;;;;;;;;;;;;;5093362;28;20413;-74
2023/04/14 14:33:09;;;;;;;;;;;;;;;;;;5093353;28;19923;-75
2023/04/14 14:36:13;;;;;;;;;;;;;;;;;;5093347;28;19918;-73
2023/04/14 14:39:17;;;;;;;;;;;;;;;;;;5093214;28;19923;-74
2023/04/14 14:42:20;;;;;;;;;;;;;;;;;;5093579;28;19965;-76
2023/04/14 14:45:24;;;;;;;;;;;;;;;;;;5093275;28;20004;-75
2023/04/14 14:48:27;;;;;;;;;;;;;;;;;;5093519;28;20008;-75
2023/04/14 14:51:30;;;;;;;;;;;;;;;;;;5093534;28;19965;-75
2023/04/14 14:54:33;;;;;;;;;;;;;;;;;;5080942;28;20279;-79
2023/04/14 14:57:36;;;;;;;;;;;;;;;;;;5093484;28;19919;-75
2023/04/14 15:00:39;;;;;;;;;;;;;;;;;;5093089;28;20280;-75
2023/04/14 15:03:42;;;;;;;;;;;;;;;;;;5097211;28;19927;-75
2023/04/14 15:06:45;;;;;;;;;;;;;;;;;;5097112;28;19919;-78
2023/04/14 15:09:48;;;;;;;;;;;;;;;;;;5096945;28;19965;-75
2023/04/14 15:12:50;;;;;;;;;;;;;;;;;;5096952;28;20287;-76
2023/04/14 15:15:53;;;;;;;;;;;;;;;;;;5096943;28;20007;-78
2023/04/14 15:18:56;;;;;;;;;;;;;;;;;;5096845;28;20007;-73
2023/04/14 15:21:59;;;;;;;;;;;;;;;;;;5107766;28;20041;-74
2023/04/14 15:25:02;;;;;;;;;;;;;;;;;;5096525;28;20390;-74
2023/04/14 15:28:05;;;;;;;;;;;;;;;;;;5096989;28;20042;-76
2023/04/14 15:31:08;;;;;;;;;;;;;;;;;;5096642;28;19965;-77
2023/04/14 15:34:12;;;;;;;;;;;;;;;;;;5096658;28;20386;-76
2023/04/14 15:37:14;;;;;;;;;;;;;;;;;;5096515;28;19919;-75
2023/04/14 15:40:18;;;;;;;;;;;;;;;;;;5095264;28;20421;-74
2023/04/14 15:43:22;;;;;;;;;;;;;;;;;;5095922;28;19962;-75
2023/04/14 15:46:26;;;;;;;;;;;;;;;;;;5095898;28;19923;-76
2023/04/14 15:49:29;;;;;;;;;;;;;;;;;;5095997;28;19919;-74
2023/04/14 15:52:32;;;;;;;;;;;;;;;;;;5095488;28;19934;-74
2023/04/14 15:55:36;;;;;;;;;;;;;;;;;;5106558;28;19959;-75
2023/04/14 15:58:40;;;;;;;;;;;;;;;;;;5095619;28;19977;-75
2023/04/14 16:01:43;;;;;;;;;;;;;;;;;;5095282;28;19920;-77
2023/04/14 16:04:46;;;;;;;;;;;;;;;;;;5095663;28;19938;-77
2023/04/14 16:07:49;;;;;;;;;;;;;;;;;;5095482;28;19923;-78
2023/04/14 16:10:52;;;;;;;;;;;;;;;;;;5095374;28;19923;-77
2023/04/14 16:13:55;;;;;;;;;;;;;;;;;;5094889;28;19957;-77
2023/04/14 16:17:00;;;;;;;;;;;;;;;;;;5095316;28;19919;-76
2023/04/14 16:20:04;;;;;;;;;;;;;;;;;;5095129;28;19939;-72
2023/04/14 16:23:07;;;;;;;;;;;;;;;;;;5095216;28;19919;-77
2023/04/14 16:26:11;;;;;;;;;;;;;;;;;;5095514;28;19925;-76
2023/04/14 16:29:15;;;;;;;;;;;;;;;;;;5095460;28;19964;-76
2023/04/14 16:32:18;;;;;;;;;;;;;;;;;;5095352;28;19978;-76
2023/04/14 16:35:20;;;;;;;;;;;;;;;;;;5095327;28;19965;-75
2023/04/14 16:41:56;;;;;;;;;;;;;;;;;;5094275;28;19970;-75
2023/04/14 16:45:02;;;;;;;;;;;;;;;;;;5094775;28;19965;-75
2023/04/14 16:48:07;;;;;;;;;;;;;;;;;;5094542;28;19963;-75
2023/04/14 16:51:12;;;;;;;;;;;;;;;;;;5094774;28;20000;-76
2023/04/14 16:54:15;;;;;;;;;;;;;;;;;;5094521;28;20283;-76
2023/04/14 16:57:19;;;;;;;;;;;;;;;;;;5094689;28;19919;-76
2023/04/14 17:00:22;;;;;;;;;;;;;;;;;;5094303;28;20394;-75
2023/04/14 17:03:26;;;;;;;;;;;;;;;;;;5094290;28;19972;-75
2023/04/14 17:06:29;;;;;;;;;;;;;;;;;;5094120;28;20011;-75
2023/04/14 17:09:32;;;;;;;;;;;;;;;;;;5094691;28;20215;-75
2023/04/14 17:12:35;;;;;;;;;;;;;;;;;;5094631;28;20383;-75
2023/04/14 17:15:39;;;;;;;;;;;;;;;;;;5094604;28;19919;-76
2023/04/14 17:18:42;;;;;;;;;;;;;;;;;;5094512;28;19923;-76
2023/04/14 17:21:45;;;;;;;;;;;;;;;;;;5094516;28;19999;-76
2023/04/14 17:24:49;;;;;;;;;;;;;;;;;;5094099;28;19918;-75
2023/04/14 17:27:52;;;;;;;;;;;;;;;;;;5094620;28;19919;-76
2023/04/14 17:30:56;;;;;;;;;;;;;;;;;;5094263;28;20292;-75
2023/04/14 17:33:58;;;;;;;;;;;;;;;;;;5094359;28;20382;-76
2023/04/14 17:37:03;;;;;;;;;;;;;;;;;;5094057;28;20060;-76
2023/04/14 17:40:07;;;;;;;;;;;;;;;;;;5093668;28;20138;-76
2023/04/14 17:43:10;;;;;;;;;;;;;;;;;;5094166;28;20346;-75
2023/04/14 17:46:13;;;;;;;;;;;;;;;;;;5092895;28;20314;-75
2023/04/14 17:49:17;;;;;;;;;;;;;;;;;;5092635;28;20007;-76
2023/04/14 17:52:20;;;;;;;;;;;;;;;;;;5092048;28;19965;-76
2023/04/14 17:55:23;;;;;;;;;;;;;;;;;;5093274;28;19972;-76
2023/04/14 17:58:26;;;;;;;;;;;;;;;;;;5092928;28;19923;-78
2023/04/14 18:01:29;;;;;;;;;;;;;;;;;;5092211;28;19923;-76
2023/04/14 18:04:32;;;;;;;;;;;;;;;;;;5092698;28;19965;-78
2023/04/14 18:07:38;;;;;;;;;;;;;;;;;;5092285;28;20359;-78
2023/04/14 18:10:42;;;;;;;;;;;;;;;;;;5092505;28;19997;-77
2023/04/14 18:13:46;;;;;;;;;;;;;;;;;;5093155;28;19939;-76
2023/04/14 18:16:50;;;;;;;;;;;;;;;;;;5069889;28;19918;-76
2023/04/14 18:19:56;;;;;;;;;;;;;;;;;;5093414;28;20292;-77
2023/04/14 18:23:01;;;;;;;;;;;;;;;;;;5073266;28;20012;-77
2023/04/14 18:26:11;;;;;;;;;;;;;;;;;;5083777;28;19938;-76
2023/04/14 18:29:15;;;;;;;;;;;;;;;;;;5081309;28;20061;-76
2023/04/14 18:32:18;;;;;;;;;;;;;;;;;;5094416;28;19919;-76
2023/04/14 18:35:24;;;;;;;;;;;;;;;;;;5092856;28;19966;-74
2023/04/14 18:38:27;;;;;;;;;;;;;;;;;;5093276;28;20382;-75
2023/04/14 18:41:31;;;;;;;;;;;;;;;;;;5093244;28;19942;-75
2023/04/14 18:44:34;;;;;;;;;;;;;;;;;;5093574;28;19999;-75
2023/04/14 18:47:41;;;;;;;;;;;;;;;;;;5092720;28;20279;-75
2023/04/14 18:50:45;;;;;;;;;;;;;;;;;;5093359;28;19919;-76
2023/04/14 18:53:49;;;;;;;;;;;;;;;;;;5092923;28;19958;-75
2023/04/14 18:56:52;;;;;;;;;;;;;;;;;;5091563;28;19919;-76
2023/04/14 18:59:59;;;;;;;;;;;;;;;;;;5092044;28;19927;-76
2023/04/14 19:03:03;;;;;;;;;;;;;;;;;;5093331;28;20413;-76
2023/04/14 19:06:07;;;;;;;;;;;;;;;;;;5093097;28;19920;-77
2023/04/14 19:09:10;;;;;;;;;;;;;;;;;;5093176;28;19938;-76
2023/04/14 19:12:14;;;;;;;;;;;;;;;;;;5093310;28;19939;-77
2023/04/14 19:15:17;;;;;;;;;;;;;;;;;;5092901;28;20382;-76
2023/04/14 19:18:21;;;;;;;;;;;;;;;;;;5092808;28;19973;-75
2023/04/14 19:21:24;;;;;;;;;;;;;;;;;;5093575;28;19968;-76
2023/04/14 19:24:30;;;;;;;;;;;;;;;;;;5092392;28;19965;-76
2023/04/14 19:27:34;;;;;;;;;;;;;;;;;;5093091;28;19959;-75
2023/04/14 19:30:38;;;;;;;;;;;;;;;;;;5092809;28;20300;-75
2023/04/14 19:33:41;;;;;;;;;;;;;;;;;;5093151;28;19923;-73
2023/04/14 19:36:47;;;;;;;;;;;;;;;;;;5092834;28;19957;-73
2023/04/14 19:39:50;;;;;;;;;;;;;;;;;;5092556;28;19923;-73
2023/04/14 19:42:54;;;;;;;;;;;;;;;;;;5092756;28;19919;-77
2023/04/14 19:46:01;;;;;;;;;;;;;;;;;;5092793;28;19958;-76
2023/04/14 19:49:06;;;;;;;;;;;;;;;;;;5096755;28;20461;-75
2023/04/14 19:52:09;;;;;;;;;;;;;;;;;;5095893;28;19969;-74
2023/04/14 19:55:12;;;;;;;;;;;;;;;;;;5096101;28;19981;-75
2023/04/14 19:58:15;;;;;;;;;;;;;;;;;;5095874;28;20061;-75
2023/04/14 20:01:17;;;;;;;;;;;;;;;;;;5096085;28;19961;-75
2023/04/14 20:04:20;;;;;;;;;;;;;;;;;;5095789;28;19965;-75
2023/04/14 20:07:23;;;;;;;;;;;;;;;;;;5095943;28;19957;-75
2023/04/14 20:10:27;;;;;;;;;;;;;;;;;;5095929;28;19965;-75
2023/04/14 20:13:33;;;;;;;;;;;;;;;;;;5095797;28;20023;-75
2023/04/14 20:16:37;;;;;;;;;;;;;;;;;;5095717;28;20300;-75
2023/04/14 20:19:53;;;;;;;;;;;;;;;;;;5071990;28;19954;-75
2023/04/14 20:23:04;;;;;;;;;;;;;;;;;;5095538;28;20341;-75
2023/04/14 20:26:07;;;;;;;;;;;;;;;;;;5094637;28;19920;-74
2023/04/14 20:29:10;;;;;;;;;;;;;;;;;;5093194;28;19987;-75
2023/04/14 20:32:15;;;;;;;;;;;;;;;;;;5093625;28;19923;-75
2023/04/14 20:35:18;;;;;;;;;;;;;;;;;;5091268;28;20327;-75
2023/04/14 20:38:22;;;;;;;;;;;;;;;;;;5093731;28;19955;-75
2023/04/14 20:41:24;;;;;;;;;;;;;;;;;;5092340;28;19922;-75
2023/04/14 20:44:27;;;;;;;;;;;;;;;;;;5092678;28;19919;-76
2023/04/14 20:47:30;;;;;;;;;;;;;;;;;;5092974;28;20359;-76
2023/04/14 20:50:34;;;;;;;;;;;;;;;;;;5093654;28;19919;-76
2023/04/14 20:53:37;;;;;;;;;;;;;;;;;;5091004;28;20436;-76
2023/04/14 20:56:39;;;;;;;;;;;;;;;;;;5088499;28;19923;-76
2023/04/14 20:59:42;;;;;;;;;;;;;;;;;;5090522;28;19965;-76
2023/04/14 21:02:46;;;;;;;;;;;;;;;;;;5092221;28;19920;-76
2023/04/14 21:05:49;;;;;;;;;;;;;;;;;;5081259;28;19923;-76